NKS1563 KFLL-KCMH
Flight info
| Callsign | NKS1563 |
|---|---|
| Flight time | 2h 19m |
| Altitude | 37000 |
| Route | AGERS1 DUCEN Q87 VIYAP Q69 GURGE Q93 QUIWE BURGG MCGNS SCRLT2 |
| Aircraft | A321/M-SDE3FGHIRWY/LB1 |
Departure
| Time | 2026-04-26 22:49 |
|---|---|
| Airport | Fort Lauderdale Hollywood International Airport (KFLL) |
Arrival
| Time | 2026-04-27 01:09 |
|---|---|
| Airport | John Glenn Columbus International Airport (KCMH) |
| Time | Latitude | Longitude | Altitude | Speed | Heading |
|---|---|---|---|---|---|
| 2026-04-26 22:13 | 26.06879 | -80.14211 | 16 ft | 0 kts | 0° |
| 2026-04-26 22:41 | 26.06857 | -80.14211 | 16 ft | 4 kts | 0° |
| 2026-04-26 22:41 | 26.06835 | -80.14212 | 16 ft | 4 kts | 353° |
| 2026-04-26 22:41 | 26.06818 | -80.14201 | 16 ft | 4 kts | 280° |
| 2026-04-26 22:41 | 26.06817 | -80.14174 | 16 ft | 2 kts | 270° |
| 2026-04-26 22:42 | 26.06817 | -80.14172 | 16 ft | 0 kts | 270° |
| 2026-04-26 22:44 | 26.06817 | -80.14174 | 16 ft | 3 kts | 270° |
| 2026-04-26 22:44 | 26.06803 | -80.14246 | 15 ft | 13 kts | 240° |
| 2026-04-26 22:44 | 26.06769 | -80.14337 | 15 ft | 12 kts | 267° |
| 2026-04-26 22:44 | 26.06769 | -80.14418 | 15 ft | 9 kts | 270° |
| 2026-04-26 22:45 | 26.06769 | -80.14495 | 15 ft | 13 kts | 269° |
| 2026-04-26 22:45 | 26.06765 | -80.14615 | 15 ft | 18 kts | 266° |
| 2026-04-26 22:45 | 26.06764 | -80.14762 | 15 ft | 18 kts | 270° |
| 2026-04-26 22:45 | 26.06762 | -80.14888 | 15 ft | 14 kts | 251° |
| 2026-04-26 22:46 | 26.06702 | -80.14946 | 19 ft | 10 kts | 237° |
| 2026-04-26 22:46 | 26.06693 | -80.15028 | 19 ft | 10 kts | 270° |
| 2026-04-26 22:46 | 26.06694 | -80.15094 | 20 ft | 9 kts | 270° |
| 2026-04-26 22:46 | 26.06694 | -80.15179 | 21 ft | 13 kts | 270° |
| 2026-04-26 22:47 | 26.06695 | -80.15316 | 16 ft | 21 kts | 271° |
| 2026-04-26 22:47 | 26.06696 | -80.15476 | 16 ft | 21 kts | 271° |
| 2026-04-26 22:47 | 26.06698 | -80.15639 | 17 ft | 21 kts | 270° |
| 2026-04-26 22:47 | 26.06696 | -80.15781 | 16 ft | 9 kts | 256° |
| 2026-04-26 22:48 | 26.06692 | -80.15791 | 16 ft | 0 kts | 247° |
| 2026-04-26 22:48 | 26.06674 | -80.15813 | 16 ft | 10 kts | 210° |
| 2026-04-26 22:48 | 26.06589 | -80.15786 | 19 ft | 14 kts | 111° |
| 2026-04-26 22:48 | 26.06589 | -80.15673 | 22 ft | 25 kts | 91° |
| 2026-04-26 22:49 | 26.06577 | -80.15196 | 21 ft | 96 kts | 92° |
| 2026-04-26 22:49 | 26.06571 | -80.14231 | 59 ft | 149 kts | 89° |
| 2026-04-26 22:49 | 26.06578 | -80.12976 | 381 ft | 168 kts | 91° |
| 2026-04-26 22:49 | 26.06626 | -80.11681 | 1057 ft | 168 kts | 89° |
| 2026-04-26 22:50 | 26.06976 | -80.10392 | 1551 ft | 185 kts | 61° |
| 2026-04-26 22:50 | 26.07734 | -80.09118 | 1863 ft | 209 kts | 58° |
| 2026-04-26 22:50 | 26.08613 | -80.07731 | 2068 ft | 231 kts | 47° |
| 2026-04-26 22:50 | 26.10017 | -80.06725 | 2215 ft | 254 kts | 21° |
| 2026-04-26 22:51 | 26.11739 | -80.06031 | 2603 ft | 269 kts | 20° |
| 2026-04-26 22:51 | 26.13514 | -80.05322 | 3260 ft | 272 kts | 20° |
| 2026-04-26 22:51 | 26.15338 | -80.04863 | 3920 ft | 275 kts | 360° |
| 2026-04-26 22:51 | 26.17211 | -80.05242 | 4593 ft | 276 kts | 340° |
| 2026-04-26 22:52 | 26.19028 | -80.05950 | 5298 ft | 277 kts | 339° |
| 2026-04-26 22:52 | 26.20794 | -80.06805 | 5982 ft | 278 kts | 326° |
| 2026-04-26 22:52 | 26.22276 | -80.08167 | 6651 ft | 276 kts | 309° |
| 2026-04-26 22:52 | 26.23335 | -80.09937 | 7238 ft | 276 kts | 293° |
| 2026-04-26 22:53 | 26.24055 | -80.11939 | 7873 ft | 281 kts | 290° |
| 2026-04-26 22:53 | 26.24798 | -80.13951 | 8505 ft | 283 kts | 297° |
| 2026-04-26 22:53 | 26.25954 | -80.15726 | 9083 ft | 286 kts | 314° |
| 2026-04-26 22:53 | 26.27554 | -80.17065 | 9662 ft | 291 kts | 330° |
| 2026-04-26 22:54 | 26.29350 | -80.18065 | 10246 ft | 297 kts | 331° |
| 2026-04-26 22:54 | 26.31266 | -80.19140 | 10362 ft | 318 kts | 331° |
| 2026-04-26 22:54 | 26.33299 | -80.20287 | 10491 ft | 337 kts | 331° |
| 2026-04-26 22:54 | 26.35441 | -80.21506 | 10614 ft | 354 kts | 332° |
| 2026-04-26 22:55 | 26.37789 | -80.22544 | 10874 ft | 371 kts | 342° |
| 2026-04-26 22:55 | 26.40352 | -80.23047 | 11442 ft | 377 kts | 352° |
| 2026-04-26 22:55 | 26.42978 | -80.23309 | 12099 ft | 381 kts | 352° |
| 2026-04-26 22:55 | 26.45609 | -80.23584 | 12795 ft | 379 kts | 352° |
| 2026-04-26 22:56 | 26.48211 | -80.23860 | 13348 ft | 382 kts | 352° |
| 2026-04-26 22:56 | 26.50869 | -80.24134 | 13895 ft | 385 kts | 353° |
| 2026-04-26 22:56 | 26.53548 | -80.24407 | 14423 ft | 388 kts | 353° |
| 2026-04-26 22:56 | 26.56248 | -80.24686 | 14950 ft | 392 kts | 352° |
| 2026-04-26 22:57 | 26.58972 | -80.25044 | 15481 ft | 398 kts | 351° |
| 2026-04-26 22:57 | 26.61707 | -80.25491 | 16044 ft | 399 kts | 349° |
| 2026-04-26 22:57 | 26.64462 | -80.25978 | 16573 ft | 404 kts | 349° |
| 2026-04-26 22:57 | 26.67242 | -80.26477 | 17130 ft | 405 kts | 349° |
| 2026-04-26 22:58 | 26.69986 | -80.26999 | 17629 ft | 407 kts | 346° |
| 2026-04-26 22:58 | 26.72691 | -80.27929 | 18087 ft | 408 kts | 338° |
| 2026-04-26 22:58 | 26.75351 | -80.29056 | 18532 ft | 410 kts | 338° |
| 2026-04-26 22:58 | 26.78034 | -80.30188 | 18971 ft | 413 kts | 338° |
| 2026-04-26 22:59 | 26.80724 | -80.31317 | 19411 ft | 415 kts | 338° |
| 2026-04-26 22:59 | 26.83440 | -80.32446 | 19816 ft | 417 kts | 338° |
| 2026-04-26 22:59 | 26.86170 | -80.33577 | 20221 ft | 419 kts | 338° |
| 2026-04-26 22:59 | 26.88913 | -80.34718 | 20616 ft | 422 kts | 338° |
| 2026-04-26 23:00 | 26.91632 | -80.35856 | 20987 ft | 424 kts | 338° |
| 2026-04-26 23:00 | 26.94402 | -80.37017 | 21346 ft | 426 kts | 338° |
| 2026-04-26 23:00 | 26.97188 | -80.38168 | 21681 ft | 428 kts | 338° |
| 2026-04-26 23:00 | 26.99995 | -80.39303 | 22006 ft | 430 kts | 338° |
| 2026-04-26 23:01 | 27.02823 | -80.40432 | 22323 ft | 432 kts | 338° |
| 2026-04-26 23:01 | 27.05656 | -80.41562 | 22628 ft | 434 kts | 338° |
| 2026-04-26 23:01 | 27.08505 | -80.42702 | 22931 ft | 435 kts | 338° |
| 2026-04-26 23:01 | 27.11355 | -80.43872 | 23210 ft | 437 kts | 337° |
| 2026-04-26 23:02 | 27.14163 | -80.45080 | 23514 ft | 439 kts | 336° |
| 2026-04-26 23:02 | 27.17009 | -80.46348 | 23849 ft | 441 kts | 336° |
| 2026-04-26 23:02 | 27.19857 | -80.47640 | 24176 ft | 443 kts | 336° |
| 2026-04-26 23:02 | 27.22727 | -80.48940 | 24485 ft | 445 kts | 336° |
| 2026-04-26 23:03 | 27.25608 | -80.50235 | 24799 ft | 447 kts | 336° |
| 2026-04-26 23:03 | 27.28504 | -80.51525 | 25100 ft | 448 kts | 336° |
| 2026-04-26 23:03 | 27.31413 | -80.52813 | 25399 ft | 450 kts | 336° |
| 2026-04-26 23:03 | 27.34331 | -80.54101 | 25699 ft | 452 kts | 336° |
| 2026-04-26 23:04 | 27.37226 | -80.55372 | 25982 ft | 453 kts | 337° |
| 2026-04-26 23:04 | 27.40187 | -80.56612 | 26276 ft | 455 kts | 338° |
| 2026-04-26 23:04 | 27.43181 | -80.57807 | 26563 ft | 457 kts | 339° |
| 2026-04-26 23:04 | 27.46194 | -80.58976 | 26850 ft | 459 kts | 339° |
| 2026-04-26 23:05 | 27.49220 | -80.60139 | 27126 ft | 460 kts | 339° |
| 2026-04-26 23:05 | 27.52250 | -80.61310 | 27441 ft | 460 kts | 339° |
| 2026-04-26 23:05 | 27.55269 | -80.62491 | 27828 ft | 458 kts | 338° |
| 2026-04-26 23:05 | 27.58271 | -80.63680 | 28204 ft | 457 kts | 338° |
| 2026-04-26 23:06 | 27.61262 | -80.64873 | 28564 ft | 455 kts | 338° |
| 2026-04-26 23:06 | 27.64203 | -80.66049 | 28911 ft | 454 kts | 338° |
| 2026-04-26 23:06 | 27.67175 | -80.67240 | 29264 ft | 453 kts | 338° |
| 2026-04-26 23:06 | 27.70141 | -80.68427 | 29609 ft | 451 kts | 338° |
| 2026-04-26 23:07 | 27.73098 | -80.69611 | 29943 ft | 451 kts | 338° |
| 2026-04-26 23:07 | 27.75048 | -80.70392 | 30172 ft | 450 kts | 338° |
| 2026-04-26 23:07 | 27.78991 | -80.71971 | 30610 ft | 448 kts | 337° |
| 2026-04-26 23:07 | 27.81927 | -80.73145 | 30929 ft | 447 kts | 337° |
| 2026-04-26 23:08 | 27.84860 | -80.74317 | 31226 ft | 447 kts | 337° |
| 2026-04-26 23:08 | 27.87751 | -80.75474 | 31521 ft | 446 kts | 337° |
| 2026-04-26 23:08 | 27.90677 | -80.76646 | 31814 ft | 446 kts | 337° |
| 2026-04-26 23:08 | 27.93597 | -80.77812 | 32111 ft | 445 kts | 337° |
| 2026-04-26 23:09 | 27.96512 | -80.78976 | 32384 ft | 444 kts | 337° |
| 2026-04-26 23:09 | 27.99419 | -80.80141 | 32655 ft | 443 kts | 337° |
| 2026-04-26 23:09 | 28.02322 | -80.81311 | 32941 ft | 442 kts | 336° |
| 2026-04-26 23:09 | 28.05208 | -80.82478 | 33257 ft | 440 kts | 336° |
| 2026-04-26 23:10 | 28.08082 | -80.83642 | 33550 ft | 438 kts | 336° |
| 2026-04-26 23:10 | 28.10950 | -80.84800 | 33811 ft | 437 kts | 336° |
| 2026-04-26 23:10 | 28.13770 | -80.85940 | 34064 ft | 436 kts | 336° |
| 2026-04-26 23:10 | 28.16625 | -80.87091 | 34320 ft | 435 kts | 336° |
| 2026-04-26 23:11 | 28.19471 | -80.88236 | 34581 ft | 434 kts | 336° |
| 2026-04-26 23:11 | 28.22311 | -80.89377 | 34810 ft | 433 kts | 336° |
| 2026-04-26 23:11 | 28.25144 | -80.90516 | 35079 ft | 431 kts | 336° |
| 2026-04-26 23:11 | 28.27965 | -80.91652 | 35331 ft | 430 kts | 336° |
| 2026-04-26 23:12 | 28.30776 | -80.92788 | 35566 ft | 429 kts | 336° |
| 2026-04-26 23:12 | 28.33583 | -80.93923 | 35792 ft | 428 kts | 336° |
| 2026-04-26 23:12 | 28.36344 | -80.95041 | 36026 ft | 427 kts | 336° |
| 2026-04-26 23:12 | 28.39137 | -80.96173 | 36257 ft | 425 kts | 336° |
| 2026-04-26 23:13 | 28.41922 | -80.97302 | 36459 ft | 425 kts | 336° |
| 2026-04-26 23:13 | 28.44705 | -80.98428 | 36644 ft | 424 kts | 336° |
| 2026-04-26 23:13 | 28.47480 | -80.99550 | 36838 ft | 423 kts | 336° |
| 2026-04-26 23:14 | 28.53001 | -81.01783 | 36935 ft | 418 kts | 336° |
| 2026-04-26 23:14 | 28.58444 | -81.03992 | 36929 ft | 414 kts | 336° |
| 2026-04-26 23:15 | 28.63820 | -81.06186 | 36928 ft | 413 kts | 336° |
| 2026-04-26 23:15 | 28.69230 | -81.08391 | 36919 ft | 413 kts | 336° |
| 2026-04-26 23:16 | 28.74637 | -81.10594 | 36929 ft | 413 kts | 336° |
| 2026-04-26 23:16 | 28.80047 | -81.12799 | 36935 ft | 413 kts | 336° |
| 2026-04-26 23:17 | 28.85423 | -81.15003 | 36942 ft | 414 kts | 336° |
| 2026-04-26 23:17 | 28.90847 | -81.17220 | 36947 ft | 414 kts | 336° |
| 2026-04-26 23:18 | 28.95353 | -81.19062 | 36953 ft | 414 kts | 336° |
| 2026-04-26 23:18 | 29.00766 | -81.21277 | 36957 ft | 413 kts | 336° |
| 2026-04-26 23:19 | 29.07052 | -81.23851 | 36964 ft | 413 kts | 336° |
| 2026-04-26 23:19 | 29.12452 | -81.26075 | 36967 ft | 412 kts | 336° |
| 2026-04-26 23:20 | 29.16934 | -81.27917 | 36970 ft | 412 kts | 336° |
| 2026-04-26 23:20 | 29.22322 | -81.30135 | 36968 ft | 411 kts | 336° |
| 2026-04-26 23:21 | 29.28694 | -81.32324 | 36961 ft | 417 kts | 348° |
| 2026-04-26 23:21 | 29.33532 | -81.32669 | 36961 ft | 420 kts | 352° |
| 2026-04-26 23:22 | 29.39360 | -81.33000 | 36959 ft | 419 kts | 352° |
| 2026-04-26 23:22 | 29.45183 | -81.33345 | 36963 ft | 419 kts | 351° |
| 2026-04-26 23:23 | 29.51005 | -81.33682 | 36963 ft | 419 kts | 352° |
| 2026-04-26 23:23 | 29.56824 | -81.34020 | 36966 ft | 418 kts | 351° |
| 2026-04-26 23:24 | 29.62598 | -81.34371 | 36967 ft | 418 kts | 351° |
| 2026-04-26 23:24 | 29.68408 | -81.34716 | 36968 ft | 418 kts | 351° |
| 2026-04-26 23:25 | 29.74214 | -81.35063 | 36968 ft | 418 kts | 351° |
| 2026-04-26 23:25 | 29.80019 | -81.35413 | 36968 ft | 418 kts | 351° |
| 2026-04-26 23:26 | 29.85783 | -81.35750 | 36967 ft | 417 kts | 351° |
| 2026-04-26 23:26 | 29.91583 | -81.36090 | 36974 ft | 417 kts | 351° |
| 2026-04-26 23:27 | 29.97376 | -81.36441 | 36974 ft | 417 kts | 351° |
| 2026-04-26 23:27 | 30.03159 | -81.36794 | 36974 ft | 416 kts | 351° |
| 2026-04-26 23:28 | 30.08899 | -81.37136 | 36973 ft | 416 kts | 351° |
| 2026-04-26 23:28 | 30.14673 | -81.37474 | 36974 ft | 415 kts | 351° |
| 2026-04-26 23:29 | 30.20437 | -81.37811 | 36970 ft | 415 kts | 351° |
| 2026-04-26 23:29 | 30.26203 | -81.38159 | 36970 ft | 415 kts | 351° |
| 2026-04-26 23:30 | 30.31923 | -81.38508 | 36969 ft | 415 kts | 351° |
| 2026-04-26 23:30 | 30.37691 | -81.38851 | 36971 ft | 415 kts | 351° |
| 2026-04-26 23:31 | 30.43455 | -81.39192 | 36972 ft | 415 kts | 351° |
| 2026-04-26 23:31 | 30.49220 | -81.39527 | 36974 ft | 415 kts | 351° |
| 2026-04-26 23:32 | 30.54955 | -81.39827 | 36977 ft | 415 kts | 351° |
| 2026-04-26 23:32 | 30.60728 | -81.40125 | 36982 ft | 415 kts | 351° |
| 2026-04-26 23:33 | 30.66498 | -81.40426 | 36984 ft | 415 kts | 351° |
| 2026-04-26 23:33 | 30.72259 | -81.40730 | 36983 ft | 414 kts | 351° |
| 2026-04-26 23:34 | 30.78018 | -81.41037 | 36981 ft | 414 kts | 351° |
| 2026-04-26 23:34 | 30.83739 | -81.41343 | 36978 ft | 414 kts | 351° |
| 2026-04-26 23:35 | 30.89503 | -81.41647 | 36973 ft | 415 kts | 351° |
| 2026-04-26 23:35 | 30.95265 | -81.41959 | 36972 ft | 414 kts | 351° |
| 2026-04-26 23:36 | 31.01021 | -81.42269 | 36971 ft | 414 kts | 351° |
| 2026-04-26 23:36 | 31.06737 | -81.42575 | 36968 ft | 414 kts | 351° |
| 2026-04-26 23:37 | 31.12493 | -81.42886 | 36964 ft | 414 kts | 351° |
| 2026-04-26 23:37 | 31.18252 | -81.43195 | 36960 ft | 414 kts | 351° |
| 2026-04-26 23:38 | 31.24008 | -81.43500 | 36967 ft | 414 kts | 351° |
| 2026-04-26 23:38 | 31.29739 | -81.43707 | 36983 ft | 416 kts | 352° |
| 2026-04-26 23:39 | 31.35534 | -81.43733 | 36982 ft | 417 kts | 353° |
| 2026-04-26 23:39 | 31.41333 | -81.43754 | 36982 ft | 417 kts | 352° |
| 2026-04-26 23:40 | 31.47147 | -81.43596 | 36981 ft | 424 kts | 1° |
| 2026-04-26 23:40 | 31.52914 | -81.41659 | 36982 ft | 435 kts | 11° |
| 2026-04-26 23:41 | 31.58590 | -81.39321 | 36983 ft | 435 kts | 11° |
| 2026-04-26 23:41 | 31.64305 | -81.36971 | 36983 ft | 435 kts | 11° |
| 2026-04-26 23:42 | 31.70018 | -81.34614 | 36982 ft | 435 kts | 11° |
| 2026-04-26 23:42 | 31.78588 | -81.31078 | 36980 ft | 435 kts | 11° |
| 2026-04-26 23:43 | 31.84302 | -81.28725 | 36977 ft | 436 kts | 11° |
| 2026-04-26 23:43 | 31.89981 | -81.26380 | 36973 ft | 435 kts | 11° |
| 2026-04-26 23:44 | 31.95715 | -81.24146 | 36966 ft | 429 kts | 4° |
| 2026-04-26 23:44 | 32.01532 | -81.23476 | 36961 ft | 418 kts | 355° |
| 2026-04-26 23:45 | 32.07345 | -81.23208 | 36957 ft | 418 kts | 355° |
| 2026-04-26 23:45 | 32.13169 | -81.22925 | 36972 ft | 419 kts | 355° |
| 2026-04-26 23:46 | 32.18965 | -81.22632 | 36981 ft | 420 kts | 355° |
| 2026-04-26 23:46 | 32.24804 | -81.22333 | 36989 ft | 420 kts | 355° |
| 2026-04-26 23:47 | 32.30647 | -81.22041 | 36992 ft | 420 kts | 355° |
| 2026-04-26 23:47 | 32.36489 | -81.21747 | 36993 ft | 420 kts | 355° |
| 2026-04-26 23:48 | 32.42294 | -81.21461 | 36994 ft | 420 kts | 355° |
| 2026-04-26 23:48 | 32.48124 | -81.21293 | 36994 ft | 414 kts | 348° |
| 2026-04-26 23:49 | 32.53717 | -81.22484 | 36996 ft | 407 kts | 341° |
| 2026-04-26 23:49 | 32.59269 | -81.23881 | 36996 ft | 408 kts | 342° |
| 2026-04-26 23:50 | 32.64829 | -81.25269 | 36994 ft | 409 kts | 342° |
| 2026-04-26 23:50 | 32.70394 | -81.26658 | 36998 ft | 409 kts | 342° |
| 2026-04-26 23:51 | 32.75916 | -81.28049 | 36997 ft | 409 kts | 342° |
| 2026-04-26 23:51 | 32.81477 | -81.29442 | 36998 ft | 408 kts | 342° |
| 2026-04-26 23:52 | 32.87039 | -81.30843 | 36997 ft | 409 kts | 342° |
| 2026-04-26 23:52 | 32.92602 | -81.32250 | 36999 ft | 409 kts | 342° |
| 2026-04-26 23:53 | 32.98136 | -81.33648 | 37001 ft | 409 kts | 342° |
| 2026-04-26 23:53 | 33.03709 | -81.35057 | 37004 ft | 410 kts | 342° |
| 2026-04-26 23:54 | 33.09286 | -81.36467 | 37004 ft | 410 kts | 342° |
| 2026-04-26 23:54 | 33.14861 | -81.37887 | 37006 ft | 410 kts | 342° |
| 2026-04-26 23:55 | 33.20446 | -81.39308 | 37008 ft | 410 kts | 342° |
| 2026-04-26 23:55 | 33.26033 | -81.40728 | 37010 ft | 411 kts | 342° |
| 2026-04-26 23:56 | 33.31679 | -81.41717 | 37012 ft | 415 kts | 347° |
| 2026-04-26 23:56 | 33.37413 | -81.42474 | 37013 ft | 415 kts | 347° |
| 2026-04-26 23:57 | 33.43154 | -81.43232 | 37014 ft | 415 kts | 347° |
| 2026-04-26 23:57 | 33.48897 | -81.44002 | 37016 ft | 415 kts | 347° |
| 2026-04-26 23:58 | 33.54638 | -81.44767 | 37018 ft | 415 kts | 347° |
| 2026-04-26 23:58 | 33.60342 | -81.45535 | 37021 ft | 415 kts | 347° |
| 2026-04-26 23:59 | 33.66087 | -81.46308 | 37026 ft | 415 kts | 347° |
| 2026-04-26 23:59 | 33.71835 | -81.47078 | 37038 ft | 416 kts | 347° |
| 2026-04-27 00:00 | 33.77587 | -81.47858 | 37043 ft | 416 kts | 347° |
| 2026-04-27 00:00 | 33.83343 | -81.48638 | 37047 ft | 416 kts | 347° |
| 2026-04-27 00:01 | 33.89063 | -81.49402 | 37051 ft | 416 kts | 347° |
| 2026-04-27 00:01 | 33.94806 | -81.50242 | 37052 ft | 413 kts | 342° |
| 2026-04-27 00:02 | 34.00249 | -81.52193 | 37053 ft | 408 kts | 337° |
| 2026-04-27 00:02 | 34.05654 | -81.54289 | 37057 ft | 408 kts | 337° |
| 2026-04-27 00:03 | 34.11067 | -81.56390 | 37064 ft | 409 kts | 337° |
| 2026-04-27 00:03 | 34.16450 | -81.58480 | 37072 ft | 409 kts | 337° |
| 2026-04-27 00:04 | 34.21876 | -81.60590 | 37080 ft | 409 kts | 337° |
| 2026-04-27 00:04 | 34.27298 | -81.62707 | 37095 ft | 410 kts | 337° |
| 2026-04-27 00:05 | 34.32715 | -81.64827 | 37086 ft | 409 kts | 337° |
| 2026-04-27 00:05 | 34.38131 | -81.66947 | 37091 ft | 409 kts | 337° |
| 2026-04-27 00:06 | 34.43519 | -81.69060 | 37093 ft | 410 kts | 337° |
| 2026-04-27 00:06 | 34.48944 | -81.71190 | 37091 ft | 410 kts | 337° |
| 2026-04-27 00:07 | 34.54365 | -81.73321 | 37088 ft | 409 kts | 337° |
| 2026-04-27 00:07 | 34.59787 | -81.75453 | 37091 ft | 409 kts | 338° |
| 2026-04-27 00:08 | 34.65200 | -81.77584 | 37097 ft | 409 kts | 338° |
| 2026-04-27 00:08 | 34.70576 | -81.79696 | 37102 ft | 409 kts | 338° |
| 2026-04-27 00:09 | 34.75985 | -81.81827 | 37103 ft | 409 kts | 338° |
| 2026-04-27 00:09 | 34.81386 | -81.83973 | 37102 ft | 408 kts | 338° |
| 2026-04-27 00:10 | 34.86788 | -81.86116 | 37097 ft | 408 kts | 338° |
| 2026-04-27 00:10 | 34.92159 | -81.88244 | 37089 ft | 409 kts | 338° |
| 2026-04-27 00:11 | 34.97571 | -81.90385 | 37083 ft | 409 kts | 338° |
| 2026-04-27 00:11 | 35.03017 | -81.92425 | 37081 ft | 412 kts | 345° |
| 2026-04-27 00:12 | 35.08767 | -81.93048 | 37080 ft | 417 kts | 352° |
| 2026-04-27 00:12 | 35.14557 | -81.93414 | 37082 ft | 417 kts | 352° |
| 2026-04-27 00:13 | 35.20316 | -81.93781 | 37083 ft | 417 kts | 353° |
| 2026-04-27 00:13 | 35.26114 | -81.94161 | 37093 ft | 417 kts | 353° |
| 2026-04-27 00:14 | 35.31913 | -81.94542 | 37098 ft | 418 kts | 353° |
| 2026-04-27 00:14 | 35.37709 | -81.94919 | 37110 ft | 417 kts | 353° |
| 2026-04-27 00:15 | 35.43507 | -81.95295 | 37113 ft | 417 kts | 353° |
| 2026-04-27 00:15 | 35.49264 | -81.95661 | 37117 ft | 417 kts | 353° |
| 2026-04-27 00:16 | 35.55055 | -81.96040 | 37118 ft | 417 kts | 353° |
| 2026-04-27 00:16 | 35.60848 | -81.96421 | 37117 ft | 417 kts | 353° |
| 2026-04-27 00:17 | 35.66637 | -81.96798 | 37121 ft | 416 kts | 353° |
| 2026-04-27 00:17 | 35.72418 | -81.97166 | 37124 ft | 416 kts | 353° |
| 2026-04-27 00:18 | 35.78160 | -81.97542 | 37122 ft | 416 kts | 353° |
| 2026-04-27 00:18 | 35.83937 | -81.97924 | 37130 ft | 416 kts | 353° |
| 2026-04-27 00:19 | 35.89706 | -81.98305 | 37134 ft | 415 kts | 353° |
| 2026-04-27 00:19 | 35.95479 | -81.98686 | 37138 ft | 415 kts | 353° |
| 2026-04-27 00:20 | 36.01253 | -81.99063 | 37140 ft | 416 kts | 353° |
| 2026-04-27 00:20 | 36.07026 | -81.99442 | 37135 ft | 415 kts | 353° |
| 2026-04-27 00:21 | 36.12757 | -81.99825 | 37130 ft | 415 kts | 353° |
| 2026-04-27 00:21 | 36.18520 | -82.00208 | 37128 ft | 415 kts | 353° |
| 2026-04-27 00:22 | 36.24282 | -82.00589 | 37121 ft | 415 kts | 353° |
| 2026-04-27 00:22 | 36.30045 | -82.00972 | 37107 ft | 415 kts | 353° |
| 2026-04-27 00:23 | 36.35806 | -82.01351 | 37101 ft | 415 kts | 353° |
| 2026-04-27 00:23 | 36.41561 | -82.01732 | 37100 ft | 414 kts | 353° |
| 2026-04-27 00:24 | 36.47278 | -82.02115 | 37083 ft | 414 kts | 353° |
| 2026-04-27 00:24 | 36.53025 | -82.02502 | 37088 ft | 414 kts | 353° |
| 2026-04-27 00:25 | 36.58776 | -82.02880 | 37091 ft | 413 kts | 353° |
| 2026-04-27 00:25 | 36.64516 | -82.03260 | 37093 ft | 413 kts | 353° |
| 2026-04-27 00:26 | 36.70218 | -82.03643 | 37096 ft | 413 kts | 353° |
| 2026-04-27 00:26 | 36.75955 | -82.04029 | 37097 ft | 413 kts | 353° |
| 2026-04-27 00:27 | 36.81685 | -82.04418 | 37090 ft | 412 kts | 353° |
| 2026-04-27 00:27 | 36.87409 | -82.04808 | 37101 ft | 412 kts | 353° |
| 2026-04-27 00:28 | 36.93095 | -82.05192 | 37107 ft | 412 kts | 354° |
| 2026-04-27 00:28 | 36.98817 | -82.05578 | 37115 ft | 412 kts | 354° |
| 2026-04-27 00:29 | 37.04539 | -82.05968 | 37127 ft | 412 kts | 354° |
| 2026-04-27 00:29 | 37.10259 | -82.06349 | 37134 ft | 411 kts | 354° |
| 2026-04-27 00:30 | 37.15967 | -82.06737 | 37139 ft | 411 kts | 354° |
| 2026-04-27 00:30 | 37.21637 | -82.07125 | 37139 ft | 411 kts | 354° |
| 2026-04-27 00:31 | 37.27344 | -82.07514 | 37140 ft | 410 kts | 354° |
| 2026-04-27 00:31 | 37.33046 | -82.07903 | 37139 ft | 410 kts | 354° |
| 2026-04-27 00:32 | 37.38742 | -82.08294 | 37134 ft | 410 kts | 354° |
| 2026-04-27 00:32 | 37.44400 | -82.08680 | 37134 ft | 410 kts | 354° |
| 2026-04-27 00:33 | 37.50097 | -82.09065 | 37132 ft | 410 kts | 354° |
| 2026-04-27 00:33 | 37.55789 | -82.09453 | 37133 ft | 409 kts | 355° |
| 2026-04-27 00:34 | 37.61474 | -82.09844 | 37131 ft | 409 kts | 355° |
| 2026-04-27 00:34 | 37.67119 | -82.10230 | 37132 ft | 409 kts | 354° |
| 2026-04-27 00:35 | 37.72802 | -82.10627 | 37130 ft | 409 kts | 354° |
| 2026-04-27 00:35 | 37.78486 | -82.11019 | 37131 ft | 409 kts | 355° |
| 2026-04-27 00:36 | 37.84173 | -82.11410 | 37129 ft | 409 kts | 355° |
| 2026-04-27 00:36 | 37.89821 | -82.11799 | 37130 ft | 409 kts | 355° |
| 2026-04-27 00:37 | 37.95508 | -82.12189 | 37130 ft | 409 kts | 355° |
| 2026-04-27 00:37 | 38.01186 | -82.12582 | 37129 ft | 408 kts | 355° |
| 2026-04-27 00:38 | 38.06857 | -82.12983 | 37126 ft | 408 kts | 355° |
| 2026-04-27 00:38 | 38.12525 | -82.13380 | 37125 ft | 408 kts | 355° |
| 2026-04-27 00:39 | 38.18155 | -82.13769 | 37123 ft | 408 kts | 355° |
| 2026-04-27 00:39 | 38.23822 | -82.14163 | 37124 ft | 408 kts | 355° |
| 2026-04-27 00:40 | 38.29489 | -82.14557 | 37126 ft | 408 kts | 355° |
| 2026-04-27 00:40 | 38.35155 | -82.14957 | 37130 ft | 408 kts | 354° |
| 2026-04-27 00:41 | 38.40825 | -82.15355 | 37134 ft | 408 kts | 354° |
| 2026-04-27 00:41 | 38.46454 | -82.15756 | 37137 ft | 408 kts | 354° |
| 2026-04-27 00:42 | 38.49283 | -82.16023 | 36903 ft | 406 kts | 350° |
| 2026-04-27 00:42 | 38.52077 | -82.16542 | 36658 ft | 405 kts | 350° |
| 2026-04-27 00:42 | 38.54862 | -82.17064 | 36160 ft | 405 kts | 350° |
| 2026-04-27 00:42 | 38.57656 | -82.17589 | 35520 ft | 407 kts | 350° |
| 2026-04-27 00:43 | 38.60461 | -82.18114 | 34847 ft | 409 kts | 350° |
| 2026-04-27 00:43 | 38.63286 | -82.18645 | 34158 ft | 411 kts | 351° |
| 2026-04-27 00:43 | 38.66096 | -82.19173 | 33364 ft | 416 kts | 351° |
| 2026-04-27 00:43 | 38.68973 | -82.19709 | 32562 ft | 420 kts | 351° |
| 2026-04-27 00:44 | 38.71879 | -82.20251 | 31738 ft | 424 kts | 351° |
| 2026-04-27 00:44 | 38.74813 | -82.20797 | 30864 ft | 429 kts | 351° |
| 2026-04-27 00:44 | 38.77786 | -82.21351 | 29938 ft | 434 kts | 350° |
| 2026-04-27 00:44 | 38.80792 | -82.21913 | 28994 ft | 439 kts | 350° |
| 2026-04-27 00:45 | 38.83833 | -82.22484 | 27992 ft | 444 kts | 350° |
| 2026-04-27 00:45 | 38.86915 | -82.23062 | 26918 ft | 451 kts | 351° |
| 2026-04-27 00:45 | 38.90033 | -82.23648 | 25913 ft | 455 kts | 351° |
| 2026-04-27 00:45 | 38.93144 | -82.24235 | 25289 ft | 449 kts | 351° |
| 2026-04-27 00:46 | 38.96185 | -82.24808 | 24548 ft | 446 kts | 351° |
| 2026-04-27 00:46 | 38.99244 | -82.25386 | 23833 ft | 442 kts | 351° |
| 2026-04-27 00:46 | 39.02278 | -82.25960 | 23118 ft | 439 kts | 351° |
| 2026-04-27 00:46 | 39.05290 | -82.26532 | 22419 ft | 436 kts | 351° |
| 2026-04-27 00:47 | 39.08277 | -82.27099 | 21719 ft | 432 kts | 351° |
| 2026-04-27 00:47 | 39.11235 | -82.27658 | 21026 ft | 428 kts | 351° |
| 2026-04-27 00:47 | 39.14173 | -82.28210 | 20340 ft | 424 kts | 351° |
| 2026-04-27 00:47 | 39.17079 | -82.28756 | 19671 ft | 420 kts | 351° |
| 2026-04-27 00:48 | 39.19956 | -82.29296 | 19011 ft | 416 kts | 351° |
| 2026-04-27 00:48 | 39.22766 | -82.29827 | 18386 ft | 412 kts | 351° |
| 2026-04-27 00:48 | 39.25587 | -82.30363 | 17780 ft | 408 kts | 351° |
| 2026-04-27 00:48 | 39.28382 | -82.30896 | 17177 ft | 405 kts | 351° |
| 2026-04-27 00:49 | 39.31156 | -82.31427 | 16613 ft | 402 kts | 351° |
| 2026-04-27 00:49 | 39.33905 | -82.31955 | 16047 ft | 398 kts | 351° |
| 2026-04-27 00:49 | 39.36635 | -82.32478 | 15484 ft | 394 kts | 351° |
| 2026-04-27 00:49 | 39.39334 | -82.32994 | 14852 ft | 392 kts | 351° |
| 2026-04-27 00:50 | 39.42035 | -82.33510 | 14214 ft | 391 kts | 351° |
| 2026-04-27 00:50 | 39.47319 | -82.34526 | 13069 ft | 382 kts | 350° |
| 2026-04-27 00:50 | 39.49870 | -82.35427 | 12476 ft | 379 kts | 339° |
| 2026-04-27 00:51 | 39.52215 | -82.36933 | 11874 ft | 375 kts | 328° |
| 2026-04-27 00:51 | 39.54331 | -82.38876 | 11286 ft | 371 kts | 324° |
| 2026-04-27 00:51 | 39.56386 | -82.40830 | 10983 ft | 359 kts | 324° |
| 2026-04-27 00:51 | 39.58356 | -82.42700 | 10855 ft | 343 kts | 325° |
| 2026-04-27 00:52 | 39.60244 | -82.44488 | 10731 ft | 329 kts | 325° |
| 2026-04-27 00:52 | 39.62056 | -82.46205 | 10603 ft | 316 kts | 325° |
| 2026-04-27 00:52 | 39.63775 | -82.47831 | 10477 ft | 304 kts | 325° |
| 2026-04-27 00:52 | 39.65457 | -82.49421 | 10324 ft | 295 kts | 325° |
| 2026-04-27 00:53 | 39.67099 | -82.50980 | 10076 ft | 290 kts | 325° |
| 2026-04-27 00:53 | 39.68718 | -82.52519 | 9874 ft | 288 kts | 325° |
| 2026-04-27 00:53 | 39.70336 | -82.54057 | 9755 ft | 288 kts | 325° |
| 2026-04-27 00:53 | 39.71847 | -82.55771 | 9588 ft | 290 kts | 313° |
| 2026-04-27 00:54 | 39.73106 | -82.57819 | 9222 ft | 290 kts | 310° |
| 2026-04-27 00:54 | 39.74347 | -82.59901 | 8779 ft | 292 kts | 309° |
| 2026-04-27 00:54 | 39.75588 | -82.61989 | 8388 ft | 292 kts | 309° |
| 2026-04-27 00:54 | 39.76808 | -82.64046 | 8010 ft | 291 kts | 309° |
| 2026-04-27 00:55 | 39.78041 | -82.66121 | 7629 ft | 289 kts | 309° |
| 2026-04-27 00:55 | 39.79270 | -82.68183 | 7249 ft | 288 kts | 310° |
| 2026-04-27 00:55 | 39.80495 | -82.70232 | 6900 ft | 285 kts | 310° |
| 2026-04-27 00:55 | 39.81700 | -82.72242 | 6835 ft | 282 kts | 310° |
| 2026-04-27 00:56 | 39.82911 | -82.74256 | 6769 ft | 283 kts | 310° |
| 2026-04-27 00:56 | 39.84124 | -82.76271 | 6706 ft | 283 kts | 310° |
| 2026-04-27 00:56 | 39.85334 | -82.78287 | 6617 ft | 282 kts | 310° |
| 2026-04-27 00:56 | 39.86541 | -82.80301 | 6526 ft | 282 kts | 310° |
| 2026-04-27 00:57 | 39.87728 | -82.82283 | 6440 ft | 282 kts | 310° |
| 2026-04-27 00:57 | 39.88934 | -82.84295 | 6348 ft | 281 kts | 310° |
| 2026-04-27 00:57 | 39.89996 | -82.86389 | 6256 ft | 274 kts | 296° |
| 2026-04-27 00:57 | 39.90550 | -82.88707 | 6163 ft | 265 kts | 278° |
| 2026-04-27 00:58 | 39.90683 | -82.91055 | 5999 ft | 256 kts | 274° |
| 2026-04-27 00:58 | 39.90738 | -82.93350 | 5767 ft | 250 kts | 272° |
| 2026-04-27 00:58 | 39.90781 | -82.95527 | 5592 ft | 239 kts | 272° |
| 2026-04-27 00:58 | 39.90825 | -82.97670 | 5290 ft | 235 kts | 272° |
| 2026-04-27 00:59 | 39.90871 | -82.99791 | 4950 ft | 234 kts | 272° |
| 2026-04-27 00:59 | 39.90917 | -83.01900 | 4617 ft | 232 kts | 272° |
| 2026-04-27 00:59 | 39.90967 | -83.03986 | 4262 ft | 230 kts | 272° |
| 2026-04-27 00:59 | 39.91015 | -83.06062 | 4020 ft | 228 kts | 272° |
| 2026-04-27 01:00 | 39.91064 | -83.08134 | 4004 ft | 230 kts | 273° |
| 2026-04-27 01:00 | 39.91114 | -83.10221 | 4017 ft | 231 kts | 272° |
| 2026-04-27 01:00 | 39.91164 | -83.12283 | 4004 ft | 231 kts | 272° |
| 2026-04-27 01:00 | 39.91215 | -83.14371 | 4015 ft | 231 kts | 273° |
| 2026-04-27 01:01 | 39.91266 | -83.16460 | 4011 ft | 231 kts | 272° |
| 2026-04-27 01:01 | 39.91317 | -83.18537 | 3963 ft | 224 kts | 272° |
| 2026-04-27 01:01 | 39.91374 | -83.20484 | 3852 ft | 206 kts | 276° |
| 2026-04-27 01:01 | 39.91876 | -83.22102 | 3700 ft | 186 kts | 316° |
| 2026-04-27 01:02 | 39.92929 | -83.22838 | 3558 ft | 166 kts | 353° |
| 2026-04-27 01:02 | 39.94044 | -83.22977 | 3311 ft | 162 kts | 1° |
| 2026-04-27 01:02 | 39.95170 | -83.23012 | 3055 ft | 160 kts | 5° |
| 2026-04-27 01:02 | 39.96166 | -83.22529 | 3004 ft | 154 kts | 49° |
| 2026-04-27 01:03 | 39.96786 | -83.21402 | 3022 ft | 155 kts | 61° |
| 2026-04-27 01:03 | 39.97296 | -83.20163 | 3015 ft | 155 kts | 64° |
| 2026-04-27 01:03 | 39.97787 | -83.18917 | 3014 ft | 155 kts | 63° |
| 2026-04-27 01:03 | 39.98274 | -83.17668 | 3016 ft | 155 kts | 64° |
| 2026-04-27 01:04 | 39.98761 | -83.16422 | 3012 ft | 154 kts | 64° |
| 2026-04-27 01:04 | 39.99248 | -83.15176 | 3012 ft | 154 kts | 64° |
| 2026-04-27 01:04 | 39.99728 | -83.13948 | 3010 ft | 154 kts | 64° |
| 2026-04-27 01:04 | 40.00216 | -83.12700 | 3011 ft | 155 kts | 64° |
| 2026-04-27 01:05 | 40.00495 | -83.11372 | 3002 ft | 153 kts | 91° |
| 2026-04-27 01:05 | 40.00420 | -83.09991 | 3014 ft | 153 kts | 92° |
| 2026-04-27 01:05 | 40.00344 | -83.08609 | 3013 ft | 153 kts | 93° |
| 2026-04-27 01:05 | 40.00269 | -83.07229 | 3012 ft | 153 kts | 93° |
| 2026-04-27 01:06 | 40.00193 | -83.05848 | 2980 ft | 151 kts | 92° |
| 2026-04-27 01:06 | 40.00118 | -83.04474 | 2827 ft | 151 kts | 92° |
| 2026-04-27 01:06 | 40.00042 | -83.03113 | 2657 ft | 146 kts | 93° |
| 2026-04-27 01:06 | 39.99970 | -83.01804 | 2464 ft | 143 kts | 93° |
| 2026-04-27 01:07 | 39.99899 | -83.00520 | 2274 ft | 144 kts | 94° |
| 2026-04-27 01:07 | 39.99828 | -82.99219 | 2085 ft | 144 kts | 93° |
| 2026-04-27 01:07 | 39.99755 | -82.97909 | 1893 ft | 145 kts | 94° |
| 2026-04-27 01:07 | 39.99682 | -82.96599 | 1701 ft | 145 kts | 92° |
| 2026-04-27 01:08 | 39.99609 | -82.95294 | 1510 ft | 144 kts | 93° |
| 2026-04-27 01:08 | 39.99535 | -82.93991 | 1329 ft | 144 kts | 93° |
| 2026-04-27 01:08 | 39.99468 | -82.92686 | 1133 ft | 143 kts | 93° |
| 2026-04-27 01:08 | 39.99399 | -82.91388 | 936 ft | 144 kts | 93° |
| 2026-04-27 01:09 | 39.99318 | -82.90121 | 826 ft | 128 kts | 94° |
| 2026-04-27 01:09 | 39.99269 | -82.89179 | 825 ft | 79 kts | 94° |
| 2026-04-27 01:09 | 39.99243 | -82.88654 | 826 ft | 47 kts | 94° |
| 2026-04-27 01:09 | 39.99228 | -82.88319 | 825 ft | 29 kts | 89° |
| 2026-04-27 01:10 | 39.99276 | -82.88089 | 825 ft | 17 kts | 65° |
| 2026-04-27 01:10 | 39.99321 | -82.87959 | 825 ft | 16 kts | 65° |
| 2026-04-27 01:10 | 39.99370 | -82.87830 | 823 ft | 13 kts | 59° |
| 2026-04-27 01:10 | 39.99448 | -82.87789 | 825 ft | 13 kts | 7° |
| 2026-04-27 01:11 | 39.99545 | -82.87782 | 823 ft | 14 kts | 355° |
| 2026-04-27 01:11 | 39.99593 | -82.87882 | 825 ft | 15 kts | 277° |
| 2026-04-27 01:11 | 39.99602 | -82.88018 | 825 ft | 14 kts | 272° |
| 2026-04-27 01:11 | 39.99625 | -82.88046 | 825 ft | 2 kts | 56° |
| 2026-04-27 01:12 | 39.99616 | -82.87958 | 825 ft | 21 kts | 96° |
| 2026-04-27 01:12 | 39.99654 | -82.87906 | 825 ft | 6 kts | 356° |
| 2026-04-27 01:12 | 39.99692 | -82.87909 | 825 ft | 4 kts | 355° |
| 2026-04-27 01:12 | 39.99702 | -82.87910 | 825 ft | 1 kts | 355° |
| 2026-04-27 01:13 | 39.99722 | -82.87924 | 825 ft | 3 kts | 297° |
| 2026-04-27 01:13 | 39.99716 | -82.87956 | 825 ft | 5 kts | 269° |
| 2026-04-27 01:13 | 39.99718 | -82.87996 | 822 ft | 3 kts | 274° |
| 2026-04-27 01:13 | 39.99719 | -82.88009 | 825 ft | 0 kts | 274° |
| 2026-04-27 01:15 | 39.99718 | -82.87998 | 825 ft | 0 kts | 274° |